createdAt,value
2023-04-15T00:04:57.489Z,3.9
2023-04-15T00:09:57.393Z,5.5
2023-04-15T00:14:57.475Z,5.0
2023-04-15T00:19:57.382Z,3.8
2023-04-15T00:24:57.463Z,6.5
2023-04-15T00:29:57.414Z,6.5
2023-04-15T00:34:57.449Z,6.7
2023-04-15T00:39:57.402Z,4.6
2023-04-15T00:44:57.501Z,5.9
2023-04-15T00:49:57.397Z,6.8
2023-04-15T00:54:57.452Z,6.6
2023-04-15T00:59:57.386Z,6.6
2023-04-15T01:04:57.450Z,4.6
2023-04-15T01:09:57.390Z,5.0
2023-04-15T01:14:57.503Z,6.6
2023-04-15T01:19:57.384Z,5.0
2023-04-15T01:24:57.489Z,5.5
2023-04-15T01:29:57.407Z,5.5
2023-04-15T01:34:57.456Z,6.0
2023-04-15T01:39:57.411Z,5.8
2023-04-15T01:44:57.491Z,7.1
2023-04-15T01:49:57.417Z,7.4
2023-04-15T01:54:57.523Z,4.7
2023-04-15T01:59:57.425Z,4.7
2023-04-15T02:04:57.529Z,6.4
2023-04-15T02:09:57.450Z,7.3
2023-04-15T02:14:57.523Z,7.7
2023-04-15T02:19:57.441Z,7.7
2023-04-15T02:24:57.545Z,7.6
2023-04-15T02:29:57.442Z,7.6
2023-04-15T02:34:57.532Z,4.7
2023-04-15T02:39:57.446Z,4.9
2023-04-15T02:44:57.529Z,5.8
2023-04-15T02:49:57.433Z,5.4
2023-04-15T02:54:57.532Z,6.2
2023-04-15T02:59:57.463Z,6.2
2023-04-15T03:04:57.537Z,6.3
2023-04-15T03:09:57.440Z,5.6
2023-04-15T03:14:57.575Z,5.4
2023-04-15T03:19:57.481Z,5.5
2023-04-15T03:24:57.542Z,4.3
2023-04-15T03:29:57.461Z,4.3
2023-04-15T03:34:57.552Z,6.1
2023-04-15T03:39:57.453Z,5.1
2023-04-15T03:44:57.555Z,7.1
2023-04-15T03:49:57.464Z,10.0
2023-04-15T03:54:57.624Z,9.5
2023-04-15T03:59:57.478Z,9.5
2023-04-15T04:04:57.568Z,9.4
2023-04-15T04:09:57.472Z,9.5
2023-04-15T04:14:57.586Z,11.2
2023-04-15T04:19:57.477Z,13.7
2023-04-15T04:24:57.598Z,14.4
2023-04-15T04:29:57.490Z,14.4
2023-04-15T04:34:57.582Z,11.4
2023-04-15T04:39:57.491Z,13.1
2023-04-15T04:44:57.595Z,12.9
2023-04-15T04:49:57.474Z,13.9
2023-04-15T04:54:57.619Z,13.0
2023-04-15T04:59:57.520Z,13.0
2023-04-15T05:04:57.550Z,15.9
2023-04-15T05:09:57.500Z,15.7
2023-04-15T05:14:57.612Z,16.2
2023-04-15T05:19:57.507Z,13.4
2023-04-15T05:24:57.555Z,14.5
2023-04-15T05:29:57.510Z,14.5
2023-04-15T05:34:57.562Z,13.6
2023-04-15T05:39:57.534Z,15.3
2023-04-15T05:44:57.592Z,12.0
2023-04-15T05:49:57.514Z,15.1
2023-04-15T05:54:57.556Z,17.1
2023-04-15T05:59:57.516Z,17.1
2023-04-15T06:04:57.625Z,17.8
2023-04-15T06:09:57.498Z,13.9
2023-04-15T06:14:59.920Z,18.0
2023-04-15T06:19:57.490Z,13.3
2023-04-15T06:24:57.560Z,17.8
2023-04-15T06:29:57.527Z,17.8
2023-04-15T06:34:57.598Z,13.7
2023-04-15T06:39:57.510Z,18.1
2023-04-15T06:44:57.599Z,14.5
2023-04-15T06:49:57.511Z,18.0
2023-04-15T06:54:57.608Z,16.0
2023-04-15T06:59:57.525Z,16.0
2023-04-15T07:04:57.564Z,12.6
2023-04-15T07:09:57.518Z,14.8
2023-04-15T07:14:57.608Z,18.1
2023-04-15T07:19:57.526Z,12.6
2023-04-15T07:24:57.609Z,21.7
2023-04-15T07:29:57.510Z,21.7
2023-04-15T07:34:57.567Z,16.3
2023-04-15T07:39:57.496Z,16.9
2023-04-15T07:44:57.574Z,11.8
2023-04-15T07:49:57.496Z,10.6
2023-04-15T07:54:57.628Z,16.4
2023-04-15T07:59:57.488Z,16.4
2023-04-15T08:04:57.639Z,12.9
2023-04-15T08:09:57.576Z,15.4
2023-04-15T08:14:57.601Z,10.8
2023-04-15T08:24:57.621Z,14.3
2023-04-15T08:29:57.524Z,14.3
2023-04-15T08:34:57.588Z,12.2
2023-04-15T08:39:57.514Z,16.9
2023-04-15T08:44:57.586Z,10.0
2023-04-15T08:49:57.513Z,13.6
2023-04-15T08:54:57.629Z,14.8
2023-04-15T08:59:57.530Z,14.8
2023-04-15T09:04:57.596Z,12.9
2023-04-15T09:09:57.517Z,13.0
2023-04-15T09:14:57.632Z,10.4
2023-04-15T09:19:57.514Z,16.9
2023-04-15T09:24:57.627Z,9.6
2023-04-15T09:29:57.509Z,9.6
2023-04-15T09:34:57.622Z,9.0
2023-04-15T09:39:57.528Z,10.5
2023-04-15T09:44:57.629Z,9.1
2023-04-15T09:49:57.613Z,6.5
2023-04-15T09:54:57.595Z,9.3
2023-04-15T09:59:57.525Z,9.3
2023-04-15T10:04:57.596Z,11.7
2023-04-15T10:09:57.551Z,12.7
2023-04-15T10:14:57.595Z,11.8
2023-04-15T10:19:57.525Z,9.0
2023-04-15T10:24:57.593Z,15.3
2023-04-15T10:29:57.519Z,15.3
2023-04-15T10:34:57.606Z,12.5
2023-04-15T10:39:57.529Z,10.7
2023-04-15T10:44:57.522Z,7.8
2023-04-15T10:49:57.537Z,9.5
2023-04-15T10:54:57.630Z,15.3
2023-04-15T10:59:57.525Z,15.3
2023-04-15T11:04:57.696Z,11.4
2023-04-15T11:09:57.531Z,14.6
2023-04-15T11:14:57.642Z,11.7
2023-04-15T11:19:57.535Z,9.5
2023-04-15T11:24:57.629Z,16.6
2023-04-15T11:29:57.536Z,16.6
2023-04-15T11:34:57.587Z,15.0
2023-04-15T11:39:57.523Z,8.3
2023-04-15T11:44:57.629Z,12.9
2023-04-15T11:49:57.560Z,7.8
2023-04-15T11:54:57.630Z,13.9
2023-04-15T11:59:57.532Z,13.9
2023-04-15T12:04:57.632Z,15.9
2023-04-15T12:09:57.579Z,11.8
2023-04-15T12:14:57.631Z,14.0
2023-04-15T12:19:57.582Z,13.3
2023-04-15T12:24:57.600Z,12.4
2023-04-15T12:29:57.568Z,12.4
2023-04-15T12:34:57.599Z,10.4
2023-04-15T12:39:57.548Z,14.9
2023-04-15T12:44:57.654Z,9.4
2023-04-15T12:49:57.541Z,8.9
2023-04-15T12:54:57.649Z,16.7
2023-04-15T12:59:57.560Z,16.7
2023-04-15T13:04:57.751Z,11.9
2023-04-15T13:09:57.550Z,12.7
2023-04-15T13:14:57.648Z,9.7
2023-04-15T13:19:57.631Z,9.6
2023-04-15T13:24:57.665Z,8.0
2023-04-15T13:29:57.566Z,8.0
2023-04-15T13:34:57.615Z,11.9
2023-04-15T13:39:57.618Z,12.4
2023-04-15T13:44:57.679Z,9.5
2023-04-15T13:49:57.556Z,11.7
2023-04-15T13:55:18.282Z,7.7
2023-04-15T13:59:57.564Z,7.7
2023-04-15T14:04:57.655Z,10.5
2023-04-15T14:09:57.560Z,13.4
2023-04-15T14:14:57.620Z,9.5
2023-04-15T14:19:57.541Z,7.4
2023-04-15T14:24:57.614Z,13.0
2023-04-15T14:29:57.553Z,13.0
2023-04-15T14:34:57.651Z,13.3
2023-04-15T14:39:57.571Z,7.9
2023-04-15T14:44:57.655Z,8.0
2023-04-15T14:49:57.557Z,9.6
2023-04-15T14:54:57.668Z,8.2
2023-04-15T14:59:57.552Z,8.2
2023-04-15T15:04:57.812Z,9.8
2023-04-15T15:09:57.554Z,13.7
2023-04-15T15:14:57.675Z,10.5
2023-04-15T15:19:57.564Z,18.8
2023-04-15T15:24:57.637Z,14.7
2023-04-15T15:29:57.570Z,14.7
2023-04-15T15:34:57.675Z,13.3
2023-04-15T15:39:57.559Z,14.5
2023-04-15T15:44:57.701Z,19.2
2023-04-15T15:49:57.583Z,11.6
2023-04-15T15:54:57.632Z,12.4
2023-04-15T16:00:10.279Z,12.4
2023-04-15T16:04:57.652Z,9.9
2023-04-15T16:09:57.607Z,8.4
2023-04-15T16:14:57.621Z,12.8
2023-04-15T16:19:59.527Z,7.6
2023-04-15T16:24:57.637Z,10.8
2023-04-15T16:29:57.603Z,10.8
2023-04-15T16:34:57.626Z,10.9
2023-04-15T16:39:57.569Z,7.9
2023-04-15T16:44:57.658Z,8.6
2023-04-15T16:49:57.566Z,8.1
2023-04-15T16:54:57.671Z,9.5
2023-04-15T16:59:57.589Z,9.5
2023-04-15T17:04:57.659Z,5.0
2023-04-15T17:09:57.577Z,8.4
2023-04-15T17:14:57.623Z,8.0
2023-04-15T17:19:57.567Z,6.9
2023-04-15T17:24:57.622Z,8.2
2023-04-15T17:29:57.565Z,8.2
2023-04-15T17:34:57.659Z,10.9
2023-04-15T17:39:57.563Z,8.0
2023-04-15T17:44:57.631Z,9.2
2023-04-15T17:49:57.600Z,9.7
2023-04-15T17:54:57.629Z,5.9
2023-04-15T17:59:57.569Z,5.9
2023-04-15T18:04:57.813Z,11.1
2023-04-15T18:09:57.584Z,8.9
2023-04-15T18:14:57.629Z,5.4
2023-04-15T18:19:57.588Z,4.5
2023-04-15T18:24:57.636Z,5.6
2023-04-15T18:29:57.571Z,5.6
2023-04-15T18:34:57.670Z,8.5
2023-04-15T18:39:57.595Z,6.8
2023-04-15T18:44:57.635Z,8.5
2023-04-15T18:49:57.583Z,8.1
2023-04-15T18:54:57.640Z,6.3
2023-04-15T18:59:57.602Z,6.3
2023-04-15T19:04:57.678Z,12.1
2023-04-15T19:09:57.591Z,9.6
2023-04-15T19:14:57.636Z,11.1
2023-04-15T19:19:57.585Z,13.0
2023-04-15T19:24:57.677Z,13.5
2023-04-15T19:29:57.585Z,13.5
2023-04-15T19:34:57.670Z,12.9
2023-04-15T19:39:57.593Z,12.1
2023-04-15T19:44:57.686Z,11.2
2023-04-15T19:49:57.616Z,15.3
2023-04-15T19:54:57.677Z,20.4
2023-04-15T19:59:57.590Z,20.4
2023-04-15T20:04:57.680Z,11.3
2023-04-15T20:09:57.601Z,15.0
2023-04-15T20:14:57.678Z,19.5
2023-04-15T20:19:57.612Z,10.0
2023-04-15T20:24:57.684Z,13.5
2023-04-15T20:29:57.612Z,13.5
2023-04-15T20:34:57.673Z,13.2
2023-04-15T20:39:57.597Z,11.9
2023-04-15T20:44:57.684Z,12.0
2023-04-15T20:49:57.590Z,14.1
2023-04-15T20:54:57.692Z,12.6
2023-04-15T20:59:57.596Z,12.6
2023-04-15T21:04:57.693Z,14.0
2023-04-15T21:09:57.601Z,14.7
2023-04-15T21:14:57.710Z,11.0
2023-04-15T21:19:57.582Z,9.6
2023-04-15T21:24:57.691Z,10.8
2023-04-15T21:29:57.610Z,10.8
2023-04-15T21:34:57.692Z,19.5
2023-04-15T21:39:57.603Z,37.2
2023-04-15T21:44:57.702Z,26.9
2023-04-15T21:49:57.595Z,21.6
2023-04-15T21:54:57.692Z,20.5
2023-04-15T21:59:57.604Z,20.5
2023-04-15T22:04:57.659Z,16.7
2023-04-15T22:09:57.613Z,23.5
2023-04-15T22:14:57.694Z,26.2
2023-04-15T22:19:57.618Z,29.5
2023-04-15T22:24:57.663Z,27.0
2023-04-15T22:29:57.616Z,27.0
2023-04-15T22:34:57.690Z,28.4
2023-04-15T22:39:57.607Z,32.8
2023-04-15T22:44:57.709Z,26.2
2023-04-15T22:49:57.624Z,25.7
2023-04-15T22:54:57.700Z,42.3
2023-04-15T22:59:57.620Z,42.3
2023-04-15T23:04:57.778Z,33.6
2023-04-15T23:09:57.629Z,37.0
2023-04-15T23:14:57.693Z,28.3
2023-04-15T23:19:57.615Z,37.2
2023-04-15T23:24:57.711Z,35.9
2023-04-15T23:29:57.614Z,35.9
2023-04-15T23:34:57.678Z,31.3
2023-04-15T23:39:57.629Z,31.1
2023-04-15T23:44:57.710Z,42.8
2023-04-15T23:49:57.632Z,27.0
2023-04-15T23:54:57.674Z,27.9
2023-04-15T23:59:57.627Z,27.9
